Time;durP1;ratioP1;P1;durP2;ratioP2;P2;SDS_P1;SDS_P2;PMS_P1;PMS_P2;Temp;Humidity;BMP_temperature;BMP_pressure;BME280_temperature;BME280_humidity;BME280_pressure;Samples;Min_cycle;Max_cycle;Signal;HPM_P1;HPM_P2
2021/06/14 00:02:04;;;;;;;7.03;4.93;;;;;;;11.36;88.13;98862.50;5081197;28;20202;-70
2021/06/14 00:04:34;;;;;;;5.40;4.90;;;;;;;11.29;88.42;98850.78;5078177;28;20222;-69
2021/06/14 00:07:02;;;;;;;4.90;4.50;;;;;;;11.26;89.10;98857.25;5077491;28;20453;-71
2021/06/14 00:09:30;;;;;;;5.03;4.60;;;;;;;11.22;90.29;98850.56;5078583;28;20205;-72
2021/06/14 00:11:59;;;;;;;5.53;5.07;;;;;;;11.10;90.57;98851.72;5079765;28;20206;-71
2021/06/14 00:14:27;;;;;;;8.73;5.20;;;;;;;11.09;90.86;98852.72;5077989;28;20214;-69
2021/06/14 00:16:55;;;;;;;6.33;5.10;;;;;;;11.05;90.20;98854.84;5082510;28;20226;-71
2021/06/14 00:19:23;;;;;;;5.70;4.90;;;;;;;10.98;91.29;98848.41;5081792;28;20207;-69
2021/06/14 00:21:52;;;;;;;5.80;4.70;;;;;;;11.05;92.24;98848.69;5079855;28;20692;-70
2021/06/14 00:24:20;;;;;;;5.27;4.17;;;;;;;10.99;92.13;98850.13;5079493;28;20601;-69
2021/06/14 00:26:48;;;;;;;5.50;4.43;;;;;;;10.89;92.80;98857.25;5081714;28;20233;-69
2021/06/14 00:29:16;;;;;;;5.10;4.80;;;;;;;10.86;93.88;98853.09;5076054;28;20202;-67
2021/06/14 00:31:44;;;;;;;4.97;4.67;;;;;;;10.84;94.41;98849.75;5078647;28;20207;-68
2021/06/14 00:34:12;;;;;;;5.13;4.73;;;;;;;10.92;93.47;98849.00;5083042;28;20256;-72
2021/06/14 00:36:40;;;;;;;6.80;5.20;;;;;;;10.86;93.30;98850.44;5078034;28;20222;-69
2021/06/14 00:39:09;;;;;;;7.43;4.80;;;;;;;10.75;93.56;98842.63;5074689;28;20772;-70
2021/06/14 00:41:37;;;;;;;5.93;5.43;;;;;;;10.71;94.42;98844.75;5080679;28;20225;-70
2021/06/14 00:44:06;;;;;;;5.13;4.73;;;;;;;10.70;93.80;98846.56;5082801;28;20625;-69
2021/06/14 00:46:34;;;;;;;8.67;5.67;;;;;;;10.71;93.98;98836.81;5081795;28;20238;-69
2021/06/14 00:49:02;;;;;;;5.77;5.27;;;;;;;10.63;94.04;98834.88;5081462;28;20206;-68
2021/06/14 00:51:30;;;;;;;5.43;5.00;;;;;;;10.59;94.15;98836.13;5082979;28;20209;-67
2021/06/14 00:54:00;;;;;;;5.17;4.83;;;;;;;10.63;94.61;98837.50;5080416;28;20202;-69
2021/06/14 00:56:30;;;;;;;5.83;5.10;;;;;;;10.49;94.30;98832.69;5082304;28;20605;-69
2021/06/14 00:58:58;;;;;;;5.30;4.77;;;;;;;10.52;95.90;98837.69;5081833;28;20227;-69
2021/06/14 01:01:26;;;;;;;5.60;5.10;;;;;;;10.53;94.77;98826.09;5080831;28;20206;-69
2021/06/14 01:03:54;;;;;;;5.63;4.93;;;;;;;10.42;94.63;98841.19;5078668;28;20226;-71
2021/06/14 01:06:22;;;;;;;4.87;4.43;;;;;;;10.39;94.92;98830.81;5078882;28;20701;-70
2021/06/14 01:08:51;;;;;;;7.47;5.20;;;;;;;10.54;95.09;98838.38;5076831;28;20198;-68
2021/06/14 01:11:25;;;;;;;5.60;5.10;;;;;;;10.53;94.95;98836.72;5073719;28;20225;-70
2021/06/14 01:14:00;;;;;;;6.63;5.23;;;;;;;10.46;95.81;98832.97;5074367;28;20245;-69
2021/06/14 01:16:33;;;;;;;5.50;4.90;;;;;;;10.47;94.89;98829.34;5075371;28;20226;-71
2021/06/14 01:19:06;;;;;;;5.00;4.60;;;;;;;10.54;94.87;98828.59;5081461;28;20202;-69
2021/06/14 01:21:36;;;;;;;5.37;4.73;;;;;;;10.46;95.06;98832.97;5075587;28;20213;-72
2021/06/14 01:24:46;;;;;;;5.70;5.20;;;;;;;10.35;96.26;98832.09;5081685;28;20225;-68
2021/06/14 01:27:31;;;;;;;5.50;5.10;;;;;;;10.34;96.13;98819.81;5075026;28;20244;-71
2021/06/14 01:29:59;;;;;;;5.87;5.37;;;;;;;10.11;97.59;98830.75;5078795;28;20380;-68
2021/06/14 01:32:28;;;;;;;6.43;5.93;;;;;;;10.00;99.26;98830.88;5081485;28;20203;-69
2021/06/14 01:34:56;;;;;;;6.77;5.73;;;;;;;9.96;99.36;98835.63;5076866;28;20214;-69
2021/06/14 01:37:24;;;;;;;6.07;5.53;;;;;;;9.97;99.83;98833.78;5077119;28;20638;-70
2021/06/14 01:39:53;;;;;;;6.17;5.60;;;;;;;9.98;99.96;98836.31;5081663;28;20613;-69
2021/06/14 01:42:22;;;;;;;6.07;5.53;;;;;;;9.93;100.00;98829.75;5078005;28;20213;-71
2021/06/14 01:44:51;;;;;;;6.80;6.00;;;;;;;9.93;100.00;98832.41;5079933;28;20236;-70
2021/06/14 01:47:19;;;;;;;5.70;5.20;;;;;;;9.86;100.00;98829.50;5074487;28;20219;-69
2021/06/14 01:49:47;;;;;;;6.70;5.77;;;;;;;9.80;100.00;98828.22;5078867;28;20601;-67
2021/06/14 01:52:15;;;;;;;6.33;5.77;;;;;;;9.78;100.00;98826.69;5078402;28;20210;-69
2021/06/14 01:54:44;;;;;;;8.90;6.00;;;;;;;9.76;100.00;98818.03;5081026;28;20213;-68
2021/06/14 01:57:13;;;;;;;6.30;5.80;;;;;;;9.93;100.00;98809.44;5081074;28;20555;-68
2021/06/14 01:59:44;;;;;;;6.23;5.63;;;;;;;9.75;100.00;98819.88;5075857;28;20214;-71
2021/06/14 02:02:12;;;;;;;6.03;5.43;;;;;;;9.69;100.00;98823.91;5077672;28;20210;-69
2021/06/14 02:04:44;;;;;;;7.03;6.40;;;;;;;9.72;100.00;98819.31;5082050;28;20218;-70
2021/06/14 02:07:13;;;;;;;6.97;6.33;;;;;;;9.62;100.00;98812.19;5078084;28;20221;-72
2021/06/14 02:09:42;;;;;;;6.13;5.60;;;;;;;9.66;100.00;98804.81;5078549;28;20205;-70
2021/06/14 02:12:11;;;;;;;6.90;6.40;;;;;;;9.68;100.00;98801.06;5081003;28;20206;-70
2021/06/14 02:14:43;;;;;;;6.80;6.30;;;;;;;9.58;100.00;98800.22;5078397;28;20195;-71
2021/06/14 02:17:14;;;;;;;6.60;6.00;;;;;;;9.56;100.00;98800.34;5081911;28;20222;-70
2021/06/14 02:19:44;;;;;;;7.80;6.03;;;;;;;9.43;100.00;98793.63;5079894;28;20226;-70
2021/06/14 02:22:13;;;;;;;6.50;5.87;;;;;;;9.41;100.00;98791.97;5080950;28;20211;-69
2021/06/14 02:24:41;;;;;;;5.77;5.23;;;;;;;9.31;100.00;98798.22;5079556;28;20265;-69
2021/06/14 02:27:11;;;;;;;6.63;6.03;;;;;;;9.37;100.00;98795.03;5081863;28;20222;-69
2021/06/14 02:29:40;;;;;;;6.80;6.10;;;;;;;9.27;100.00;98792.38;5079149;28;20223;-70
2021/06/14 02:32:10;;;;;;;6.10;5.50;;;;;;;9.16;100.00;98793.31;5081996;28;20214;-69
2021/06/14 02:34:38;;;;;;;7.60;6.83;;;;;;;9.16;100.00;98793.31;5082728;28;20597;-69
2021/06/14 02:37:07;;;;;;;7.90;7.13;;;;;;;9.18;100.00;98793.19;5081660;28;20601;-68
2021/06/14 02:39:35;;;;;;;9.43;6.67;;;;;;;9.03;100.00;98804.13;5083375;28;20202;-69
2021/06/14 02:42:05;;;;;;;7.33;6.53;;;;;;;9.10;100.00;98793.84;5084461;28;20198;-70
2021/06/14 02:44:33;;;;;;;7.17;5.93;;;;;;;9.08;100.00;98801.09;5084368;28;20263;-67
2021/06/14 02:47:04;;;;;;;6.67;6.07;;;;;;;9.04;100.00;98799.69;5082497;28;20253;-68
2021/06/14 02:49:34;;;;;;;7.30;6.70;;;;;;;8.87;100.00;98804.63;5079883;28;20207;-72
2021/06/14 02:52:04;;;;;;;8.27;6.40;;;;;;;8.83;100.00;98800.56;5080645;28;20214;-70
2021/06/14 02:54:38;;;;;;;7.37;6.23;;;;;;;8.82;100.00;98812.97;5088369;28;20285;-66
2021/06/14 02:57:12;;;;;;;6.23;5.73;;;;;;;8.83;100.00;98805.84;5077023;28;20222;-68
2021/06/14 02:59:42;;;;;;;8.83;6.67;;;;;;;8.86;100.00;98805.59;5080251;28;20205;-70
2021/06/14 03:02:10;;;;;;;6.23;5.73;;;;;;;8.79;100.00;98799.16;5083475;28;20198;-67
2021/06/14 03:04:39;;;;;;;6.80;6.23;;;;;;;8.75;100.00;98803.03;5082968;28;20245;-69
2021/06/14 03:07:07;;;;;;;6.87;6.23;;;;;;;8.72;100.00;98806.81;5082733;28;20226;-68
2021/06/14 03:09:35;;;;;;;8.03;6.50;;;;;;;8.70;100.00;98803.44;5084176;28;20236;-68
2021/06/14 03:12:04;;;;;;;6.93;6.33;;;;;;;8.73;100.00;98803.19;5082533;28;20198;-70
2021/06/14 03:14:32;;;;;;;8.33;7.50;;;;;;;8.79;100.00;98799.16;5081662;28;20686;-68
2021/06/14 03:17:00;;;;;;;7.20;6.43;;;;;;;8.76;100.00;98805.56;5081409;28;20257;-68
2021/06/14 03:19:29;;;;;;;6.90;6.40;;;;;;;8.76;100.00;98799.44;5084247;28;20202;-69
2021/06/14 03:21:59;;;;;;;6.83;6.30;;;;;;;8.79;100.00;98805.31;5081882;28;20269;-68
2021/06/14 03:24:27;;;;;;;6.43;5.93;;;;;;;8.79;100.00;98799.16;5081740;28;20233;-67
2021/06/14 03:26:55;;;;;;;6.77;6.10;;;;;;;8.98;100.00;98801.03;5076764;28;20233;-68
2021/06/14 03:29:24;;;;;;;7.00;6.50;;;;;;;8.97;100.00;98800.22;5081850;28;20936;-68
2021/06/14 03:31:53;;;;;;;6.97;6.27;;;;;;;8.96;100.00;98803.84;5079866;28;20671;-68
2021/06/14 03:34:23;;;;;;;7.30;6.50;;;;;;;8.81;100.00;98811.28;5084148;28;20289;-68
2021/06/14 03:36:52;;;;;;;7.27;6.57;;;;;;;8.85;100.00;98816.31;5084314;28;20283;-66
2021/06/14 03:39:22;;;;;;;6.67;6.20;;;;;;;8.84;100.00;98820.75;5080753;28;20544;-68
2021/06/14 03:41:51;;;;;;;6.63;6.13;;;;;;;8.86;100.00;98817.97;5082965;28;20202;-68
2021/06/14 03:44:21;;;;;;;6.90;6.30;;;;;;;8.83;100.00;98825.22;5079265;28;20202;-70
2021/06/14 03:46:49;;;;;;;7.43;6.43;;;;;;;9.00;100.00;98824.72;5082887;28;20237;-68
2021/06/14 03:49:20;;;;;;;8.40;6.33;;;;;;;8.98;100.00;98815.13;5078168;28;20210;-67
2021/06/14 03:51:48;;;;;;;7.63;6.93;;;;;;;9.02;100.00;98812.19;5081767;28;20206;-69
2021/06/14 03:54:15;;;;;;;5.93;5.53;;;;;;;9.12;100.00;98807.78;5081495;28;20670;-70
2021/06/14 03:56:45;;;;;;;9.37;6.60;;;;;;;9.05;100.00;98807.47;5079575;28;20232;-69
2021/06/14 03:59:13;;;;;;;7.93;5.93;;;;;;;9.16;100.00;98803.06;5084656;28;20867;-66
2021/06/14 04:01:41;;;;;;;7.37;6.73;;;;;;;9.17;100.00;98802.09;5080964;28;20285;-70
2021/06/14 04:04:29;;;;;;;6.93;6.33;;;;;;;9.40;100.00;98806.16;5074649;28;20199;-69
2021/06/14 04:06:57;;;;;;;7.60;6.90;;;;;;;9.58;100.00;98815.25;5080488;28;20222;-69
2021/06/14 04:09:25;;;;;;;7.77;7.07;;;;;;;9.64;100.00;98814.69;5080346;28;20206;-68
2021/06/14 04:11:54;;;;;;;6.40;5.90;;;;;;;9.69;100.00;98815.97;5077822;28;20203;-71
2021/06/14 04:14:22;;;;;;;7.13;6.43;;;;;;;9.70;100.00;98811.50;5082755;28;20244;-70
2021/06/14 04:16:50;;;;;;;6.77;6.13;;;;;;;9.76;100.00;98808.31;5078878;28;20227;-70
2021/06/14 04:19:18;;;;;;;7.67;6.87;;;;;;;9.77;100.00;98804.69;5081387;28;20218;-71
2021/06/14 04:21:46;;;;;;;7.00;6.50;;;;;;;9.85;100.00;98802.19;5079041;28;20217;-70
2021/06/14 04:24:14;;;;;;;6.90;6.20;;;;;;;9.84;100.00;98797.00;5080590;28;20214;-69
2021/06/14 04:26:42;;;;;;;7.83;7.10;;;;;;;9.92;100.00;98804.25;5083787;28;20233;-71
2021/06/14 04:29:11;;;;;;;7.43;6.80;;;;;;;9.95;100.00;98804.81;5081686;28;20605;-71
2021/06/14 04:31:39;;;;;;;7.07;6.43;;;;;;;10.24;100.00;98809.25;5079586;28;20748;-71
2021/06/14 04:34:07;;;;;;;7.67;7.07;;;;;;;10.31;100.00;98803.41;5082342;28;20621;-71
2021/06/14 04:36:35;;;;;;;7.77;6.63;;;;;;;10.45;100.00;98799.50;5080674;28;20229;-71
2021/06/14 04:39:04;;;;;;;9.10;7.83;;;;;;;10.59;99.71;98792.88;5079290;28;20202;-70
2021/06/14 04:41:32;;;;;;;12.47;7.30;;;;;;;10.58;100.00;98792.06;5083316;28;20241;-71
2021/06/14 04:44:00;;;;;;;10.10;7.23;;;;;;;10.68;98.85;98799.97;5077082;28;20199;-70
2021/06/14 04:46:29;;;;;;;10.10;7.07;;;;;;;10.69;99.58;98794.53;5074854;28;20229;-70
2021/06/14 04:48:57;;;;;;;7.13;6.30;;;;;;;10.91;96.22;98795.16;5078954;28;20213;-70
2021/06/14 04:51:25;;;;;;;11.93;7.77;;;;;;;10.88;97.04;98792.78;5082995;28;20206;-70
2021/06/14 04:53:53;;;;;;;14.63;7.70;;;;;;;11.07;96.72;98801.63;5082495;28;20202;-71
2021/06/14 04:56:21;;;;;;;13.37;7.80;;;;;;;11.11;96.22;98790.59;5080284;28;20230;-70
2021/06/14 04:58:49;;;;;;;18.00;8.63;;;;;;;11.15;96.65;98791.09;5083014;28;20199;-71
2021/06/14 05:01:17;;;;;;;14.17;8.23;;;;;;;11.21;97.00;98795.00;5078203;28;20198;-71
2021/06/14 05:03:46;;;;;;;15.60;8.33;;;;;;;11.34;95.27;98794.63;5078770;28;20198;-70
2021/06/14 05:06:14;;;;;;;17.50;7.63;;;;;;;11.43;93.58;98785.78;5078586;28;20226;-70
2021/06/14 05:08:42;;;;;;;13.83;8.07;;;;;;;11.58;92.76;98789.59;5079278;28;20206;-70
2021/06/14 05:11:10;;;;;;;20.77;8.23;;;;;;;11.71;91.87;98785.72;5078707;28;20545;-71
2021/06/14 05:13:38;;;;;;;10.00;7.03;;;;;;;11.79;89.60;98777.81;5074518;28;20210;-71
2021/06/14 05:16:06;;;;;;;10.57;6.63;;;;;;;11.98;87.52;98776.81;5081492;28;20218;-70
2021/06/14 05:18:34;;;;;;;5.43;4.87;;;;;;;12.23;81.34;98776.19;5075700;28;20216;-70
2021/06/14 05:21:03;;;;;;;6.27;5.47;;;;;;;12.24;80.20;98780.53;5080427;28;20225;-70
2021/06/14 05:23:31;;;;;;;6.70;4.97;;;;;;;12.41;79.06;98781.47;5075034;28;20574;-71
2021/06/14 05:25:59;;;;;;;10.07;4.80;;;;;;;12.53;76.34;98787.34;5081141;28;20318;-71
2021/06/14 05:28:28;;;;;;;9.63;5.10;;;;;;;12.68;74.35;98782.28;5080805;28;20256;-70
2021/06/14 05:30:56;;;;;;;5.20;4.70;;;;;;;12.84;74.78;98781.53;5082401;28;20207;-70
2021/06/14 05:33:24;;;;;;;7.33;6.17;;;;;;;13.07;72.08;98772.97;5079985;28;20507;-71
2021/06/14 05:35:52;;;;;;;8.07;7.37;;;;;;;13.11;72.05;98777.81;5080666;28;20236;-70
2021/06/14 05:38:22;;;;;;;8.67;7.00;;;;;;;13.22;70.96;98774.03;5080736;28;20210;-71
2021/06/14 05:40:50;;;;;;;8.93;6.13;;;;;;;13.41;68.83;98774.72;5078735;28;20206;-70
2021/06/14 05:43:18;;;;;;;6.47;5.80;;;;;;;13.52;68.70;98779.81;5078902;28;20233;-71
2021/06/14 05:45:46;;;;;;;7.53;6.93;;;;;;;13.64;67.63;98779.47;5080721;28;20226;-70
2021/06/14 05:48:14;;;;;;;8.60;7.23;;;;;;;13.76;65.91;98778.16;5073322;28;20218;-70
2021/06/14 05:50:42;;;;;;;8.43;7.03;;;;;;;13.85;66.12;98773.66;5079847;28;20198;-70
2021/06/14 05:53:11;;;;;;;10.00;7.40;;;;;;;13.81;66.52;98770.50;5079869;28;20665;-71
2021/06/14 05:55:41;;;;;;;11.80;7.20;;;;;;;13.89;66.96;98765.19;5079721;28;20212;-71
2021/06/14 05:58:09;;;;;;;12.07;7.50;;;;;;;13.96;67.11;98765.34;5075705;28;20199;-71
2021/06/14 06:00:37;;;;;;;9.73;6.40;;;;;;;14.38;65.66;98770.63;5080004;28;20424;-71
2021/06/14 06:03:06;;;;;;;9.93;6.47;;;;;;;14.56;64.56;98770.41;5074141;28;20588;-70
2021/06/14 06:05:34;;;;;;;8.27;5.70;;;;;;;14.51;64.42;98770.09;5080143;28;20773;-70
2021/06/14 06:08:02;;;;;;;9.40;5.77;;;;;;;14.64;62.81;98774.91;5081675;28;20202;-71
2021/06/14 06:10:31;;;;;;;6.63;5.33;;;;;;;14.59;62.83;98773.59;5077245;28;20629;-71
2021/06/14 06:13:02;;;;;;;5.80;4.53;;;;;;;14.84;62.10;98780.72;5081465;28;20220;-70
2021/06/14 06:15:30;;;;;;;5.83;5.20;;;;;;;14.68;61.67;98769.06;5079001;28;20206;-70
2021/06/14 06:17:58;;;;;;;8.37;5.40;;;;;;;14.92;62.56;98767.34;5080469;28;20718;-70
2021/06/14 06:20:26;;;;;;;5.27;4.67;;;;;;;15.07;59.84;98761.28;5081146;28;20217;-71
2021/06/14 06:22:55;;;;;;;5.67;4.43;;;;;;;15.12;59.96;98758.91;5082121;28;20214;-71
2021/06/14 06:25:25;;;;;;;4.60;3.80;;;;;;;15.30;59.20;98761.31;5076196;28;20277;-71
2021/06/14 06:27:53;;;;;;;5.10;4.60;;;;;;;15.34;57.87;98762.63;5077590;28;20605;-71
2021/06/14 06:30:26;;;;;;;6.90;4.00;;;;;;;15.40;58.82;98755.78;5074052;28;20205;-71
2021/06/14 06:32:54;;;;;;;5.53;4.43;;;;;;;15.56;57.30;98752.16;5080778;28;20667;-72
2021/06/14 06:35:23;;;;;;;4.07;3.77;;;;;;;15.66;56.63;98757.25;5082475;28;20527;-70
2021/06/14 06:37:51;;;;;;;5.03;3.70;;;;;;;15.70;56.19;98755.88;5082720;28;20245;-71
2021/06/14 06:40:20;;;;;;;4.13;3.80;;;;;;;15.89;55.27;98754.59;5081346;28;20210;-71
2021/06/14 06:42:48;;;;;;;4.57;4.07;;;;;;;15.84;56.26;98755.13;5082590;28;20578;-71
2021/06/14 06:45:16;;;;;;;5.10;4.17;;;;;;;15.85;55.37;98756.78;5081640;28;20609;-70
2021/06/14 06:47:46;;;;;;;6.07;4.03;;;;;;;15.98;54.83;98758.88;5082476;28;20241;-70
2021/06/14 06:50:15;;;;;;;4.50;4.10;;;;;;;15.96;55.11;98762.72;5077325;28;20251;-70
2021/06/14 06:52:43;;;;;;;6.17;4.10;;;;;;;16.08;54.73;98760.47;5080538;28;20677;-71
2021/06/14 06:55:13;;;;;;;7.37;3.67;;;;;;;16.06;56.07;98756.13;5080294;28;20289;-71
2021/06/14 06:57:42;;;;;;;5.97;4.43;;;;;;;16.23;55.06;98755.16;5080800;28;20218;-70
2021/06/14 07:00:13;;;;;;;6.50;3.87;;;;;;;16.29;54.66;98749.06;5082360;28;20210;-71
2021/06/14 07:02:41;;;;;;;6.93;4.20;;;;;;;16.43;55.43;98737.53;5079744;28;20202;-71
2021/06/14 07:05:31;;;;;;;6.60;3.93;;;;;;;16.68;53.93;98739.13;5077876;28;20202;-71
2021/06/14 07:07:59;;;;;;;4.40;4.00;;;;;;;16.61;53.14;98731.00;5081243;28;20218;-71
2021/06/14 07:10:28;;;;;;;6.43;4.40;;;;;;;16.75;53.48;98740.06;5072993;28;20207;-70
2021/06/14 07:13:16;;;;;;;4.37;3.97;;;;;;;16.87;51.59;98740.41;5072400;28;20203;-71
2021/06/14 07:15:45;;;;;;;5.80;4.30;;;;;;;16.74;53.27;98731.19;5092745;28;20272;-70
2021/06/14 07:18:13;;;;;;;7.77;4.37;;;;;;;16.74;51.77;98735.72;5089203;28;20203;-70
2021/06/14 07:20:43;;;;;;;4.37;3.50;;;;;;;16.78;51.42;98732.47;5083472;28;20203;-71
2021/06/14 07:23:11;;;;;;;5.20;4.10;;;;;;;17.03;51.14;98729.50;5082249;28;20230;-71
2021/06/14 07:25:39;;;;;;;4.33;3.60;;;;;;;17.29;48.29;98724.63;5078528;28;20237;-71
2021/06/14 07:28:07;;;;;;;4.77;3.83;;;;;;;17.28;50.74;98722.97;5078919;28;20226;-71
2021/06/14 07:30:36;;;;;;;5.07;3.57;;;;;;;17.53;49.54;98720.75;5084133;28;20279;-71
2021/06/14 07:33:05;;;;;;;5.43;4.50;;;;;;;17.49;49.51;98723.00;5084398;28;20206;-71
2021/06/14 07:35:35;;;;;;;4.97;4.07;;;;;;;17.46;47.95;98725.22;5083864;28;20741;-70
2021/06/14 07:38:06;;;;;;;4.77;3.50;;;;;;;17.67;48.62;98731.63;5081953;28;20468;-71
2021/06/14 07:40:35;;;;;;;11.50;5.97;;;;;;;17.72;48.60;98721.97;5082349;28;20213;-71
2021/06/14 07:43:04;;;;;;;5.57;3.33;;;;;;;17.87;47.55;98735.31;5084503;28;20202;-71
2021/06/14 07:45:33;;;;;;;6.33;3.63;;;;;;;18.04;45.75;98718.97;5084259;28;20276;-69
2021/06/14 07:48:01;;;;;;;4.33;3.37;;;;;;;17.89;45.94;98719.03;5075973;28;20673;-71
2021/06/14 07:50:30;;;;;;;7.40;4.10;;;;;;;17.85;46.85;98725.81;5081848;28;20217;-70
2021/06/14 07:52:58;;;;;;;6.00;3.83;;;;;;;18.08;46.11;98725.59;5085337;28;20210;-71
2021/06/14 07:55:28;;;;;;;3.93;3.13;;;;;;;18.01;47.08;98722.88;5084151;28;20292;-71
2021/06/14 07:57:56;;;;;;;5.10;3.50;;;;;;;18.13;46.22;98716.97;5083498;28;20733;-70
2021/06/14 08:00:24;;;;;;;4.53;3.17;;;;;;;18.20;46.54;98721.34;5081666;28;20670;-70
2021/06/14 08:02:53;;;;;;;7.57;4.77;;;;;;;18.25;47.57;98722.63;5082045;28;20219;-70
2021/06/14 08:05:21;;;;;;;4.17;3.80;;;;;;;18.52;46.39;98726.28;5080944;28;20206;-71
2021/06/14 08:07:50;;;;;;;3.73;2.87;;;;;;;18.60;46.19;98720.78;5080020;28;20235;-70
2021/06/14 08:10:19;;;;;;;4.77;3.33;;;;;;;18.63;45.30;98720.38;5080649;28;20216;-70
2021/06/14 08:12:50;;;;;;;3.47;3.00;;;;;;;18.86;44.90;98713.88;5080644;28;20209;-70
2021/06/14 08:15:20;;;;;;;5.27;3.80;;;;;;;18.83;45.27;98716.94;5079942;28;20202;-71
2021/06/14 08:17:49;;;;;;;3.80;3.40;;;;;;;18.95;45.22;98707.31;5083006;28;20311;-71
2021/06/14 08:20:24;;;;;;;3.97;3.60;;;;;;;18.90;45.03;98717.00;5084253;28;20224;-71
2021/06/14 08:25:39;;;;;;;4.20;3.23;;;;;;;18.90;45.04;98719.66;5081876;28;20213;-70
2021/06/14 08:28:08;;;;;;;4.93;3.47;;;;;;;18.92;46.04;98714.94;5077713;28;20318;-69
2021/06/14 08:30:36;;;;;;;4.40;3.50;;;;;;;19.25;44.73;98716.94;5084372;28;20207;-70
2021/06/14 08:33:05;;;;;;;3.60;3.30;;;;;;;19.19;44.47;98715.06;5079670;28;20684;-69
2021/06/14 08:35:34;;;;;;;5.13;3.50;;;;;;;19.31;43.87;98717.97;5078717;28;20230;-69
2021/06/14 08:38:03;;;;;;;5.97;3.57;;;;;;;19.16;44.35;98699.34;5083795;28;20230;-70
2021/06/14 08:40:33;;;;;;;6.67;3.07;;;;;;;19.26;43.45;98705.16;5080383;28;20248;-69
2021/06/14 08:43:04;;;;;;;2.97;2.77;;;;;;;19.38;42.93;98695.44;5082502;28;20305;-70
2021/06/14 08:45:36;;;;;;;4.10;2.93;;;;;;;19.57;44.13;98698.38;5083018;28;20315;-70
2021/06/14 08:48:06;;;;;;;3.20;3.00;;;;;;;19.73;42.57;98693.63;5080002;28;20237;-69
2021/06/14 08:50:35;;;;;;;5.37;4.13;;;;;;;19.52;43.54;98700.88;5078152;28;20206;-69
2021/06/14 08:53:04;;;;;;;3.87;3.47;;;;;;;19.65;43.26;98687.44;5077416;28;20207;-70
2021/06/14 08:55:32;;;;;;;4.47;3.00;;;;;;;19.62;42.67;98687.84;5079315;28;20244;-69
2021/06/14 08:58:01;;;;;;;3.10;2.87;;;;;;;19.78;42.63;98683.06;5083022;28;20206;-70
2021/06/14 09:00:33;;;;;;;3.67;3.30;;;;;;;19.91;42.29;98680.44;5079701;28;20659;-70
2021/06/14 09:03:04;;;;;;;3.40;3.20;;;;;;;20.13;43.49;98682.88;5081654;28;20213;-70
2021/06/14 09:05:32;;;;;;;4.77;3.00;;;;;;;20.16;41.14;98678.94;5084100;28;20209;-69
2021/06/14 09:08:06;;;;;;;3.20;2.90;;;;;;;20.39;42.04;98676.59;5079271;28;20598;-71
2021/06/14 09:10:36;;;;;;;5.47;3.40;;;;;;;20.22;41.89;98675.41;5083304;28;20202;-70
2021/06/14 09:13:12;;;;;;;4.43;3.60;;;;;;;20.34;41.82;98675.59;5081029;28;20209;-70
2021/06/14 09:15:41;;;;;;;5.30;3.40;;;;;;;20.32;42.01;98672.28;5081305;28;20217;-70
2021/06/14 09:18:23;;;;;;;3.60;3.30;;;;;;;20.40;42.60;98661.28;5080673;28;20666;-69
2021/06/14 09:20:56;;;;;;;3.70;3.43;;;;;;;20.48;42.56;98671.81;5079820;28;20224;-69
2021/06/14 09:23:25;;;;;;;3.70;3.40;;;;;;;20.59;41.26;98675.72;5081458;28;20229;-71
2021/06/14 09:26:01;;;;;;;6.03;3.27;;;;;;;20.54;41.30;98662.91;5078255;28;20634;-70
2021/06/14 09:28:30;;;;;;;5.87;3.77;;;;;;;20.52;43.33;98664.16;5079623;28;20359;-70
2021/06/14 09:30:59;;;;;;;5.63;3.57;;;;;;;20.71;41.76;98662.44;5080834;28;20198;-71
2021/06/14 09:33:29;;;;;;;5.27;3.50;;;;;;;20.53;42.24;98655.84;5081527;28;20210;-70
2021/06/14 09:36:06;;;;;;;6.37;4.70;;;;;;;20.51;39.89;98649.06;5081707;28;20230;-69
2021/06/14 09:38:34;;;;;;;7.97;3.27;;;;;;;20.00;42.10;98640.69;5082237;28;20210;-69
2021/06/14 09:41:09;;;;;;;3.60;3.30;;;;;;;20.36;42.18;98641.22;5082721;28;20214;-71
2021/06/14 09:43:39;;;;;;;4.60;3.60;;;;;;;20.55;40.50;98647.59;5080395;28;20217;-70
2021/06/14 09:46:20;;;;;;;3.13;2.90;;;;;;;20.64;41.04;98640.91;5082763;28;20233;-69
2021/06/14 09:48:51;;;;;;;3.40;3.13;;;;;;;20.88;40.72;98637.72;5078625;28;20218;-70
2021/06/14 09:51:20;;;;;;;5.77;3.63;;;;;;;21.09;40.50;98634.72;5082470;28;20198;-70
2021/06/14 09:53:49;;;;;;;3.97;2.93;;;;;;;21.20;39.67;98635.06;5078555;28;20206;-70
2021/06/14 09:56:19;;;;;;;3.80;2.77;;;;;;;21.06;39.29;98631.59;5079284;28;20230;-69
2021/06/14 09:58:49;;;;;;;3.40;3.10;;;;;;;21.09;39.25;98632.00;5082721;28;20202;-69
2021/06/14 10:01:23;;;;;;;4.13;3.10;;;;;;;20.88;42.42;98633.19;5085438;28;20209;-71
2021/06/14 10:03:53;;;;;;;4.27;3.50;;;;;;;21.44;39.50;98632.59;5083806;28;20284;-71
2021/06/14 10:06:33;;;;;;;4.57;3.07;;;;;;;21.27;38.80;98632.31;5083786;28;20225;-70
2021/06/14 10:09:02;;;;;;;3.40;3.10;;;;;;;21.17;40.83;98630.09;5082422;28;20221;-69
2021/06/14 10:11:35;;;;;;;3.30;3.00;;;;;;;21.18;39.13;98623.66;5081702;28;20233;-70
2021/06/14 10:14:11;;;;;;;3.57;3.00;;;;;;;21.25;39.39;98617.19;5080257;28;20206;-70
2021/06/14 10:16:41;;;;;;;3.57;3.27;;;;;;;21.08;38.77;98607.97;5081652;28;20226;-70
2021/06/14 10:19:12;;;;;;;4.80;3.00;;;;;;;21.17;39.42;98612.03;5081826;28;20251;-69
2021/06/14 10:21:42;;;;;;;3.50;3.20;;;;;;;21.44;39.28;98609.16;5079615;28;20210;-71
2021/06/14 10:24:11;;;;;;;5.13;3.10;;;;;;;21.55;39.25;98607.63;5078177;28;20694;-69
2021/06/14 10:26:41;;;;;;;4.00;2.73;;;;;;;21.82;38.32;98597.44;5079089;28;20478;-69
2021/06/14 10:29:12;;;;;;;4.10;3.40;;;;;;;21.97;41.04;98589.00;5077822;28;20225;-69
2021/06/14 10:31:41;;;;;;;3.67;3.30;;;;;;;22.12;37.99;98585.09;5077559;28;20203;-70
2021/06/14 10:34:12;;;;;;;3.33;3.03;;;;;;;22.07;38.31;98588.47;5074777;28;20199;-71
2021/06/14 10:36:44;;;;;;;4.47;2.77;;;;;;;22.05;38.35;98590.56;5082161;28;20934;-70
2021/06/14 10:39:13;;;;;;;3.30;3.00;;;;;;;22.05;37.54;98578.94;5075843;28;20560;-70
2021/06/14 10:41:43;;;;;;;3.33;3.03;;;;;;;22.03;38.68;98576.50;5082221;28;20209;-70
2021/06/14 10:44:11;;;;;;;4.00;3.60;;;;;;;22.32;38.33;98570.53;5082560;28;20234;-70
2021/06/14 10:46:43;;;;;;;5.53;3.23;;;;;;;23.30;35.17;98564.22;5083218;28;20599;-69
2021/06/14 10:49:14;;;;;;;5.67;3.07;;;;;;;23.91;34.04;98558.59;5082503;28;20245;-71
2021/06/14 10:51:44;;;;;;;4.10;3.20;;;;;;;24.34;33.11;98562.75;5081608;28;20213;-70
2021/06/14 10:54:17;;;;;;;2.67;2.47;;;;;;;25.26;31.23;98565.50;5082786;28;20706;-69
2021/06/14 10:56:45;;;;;;;2.93;2.70;;;;;;;25.21;32.34;98560.00;5086716;28;20241;-71
2021/06/14 10:59:14;;;;;;;5.63;2.90;;;;;;;25.94;30.23;98553.75;5084622;28;20307;-72
2021/06/14 11:01:45;;;;;;;3.07;2.87;;;;;;;26.18;30.11;98550.03;5085320;28;20827;-70
2021/06/14 11:04:25;;;;;;;3.10;2.90;;;;;;;25.50;31.53;98549.09;5084128;28;20654;-70
2021/06/14 11:06:54;;;;;;;3.33;2.60;;;;;;;26.65;29.64;98540.47;5080517;28;20231;-71
2021/06/14 11:09:22;;;;;;;3.87;3.10;;;;;;;26.62;30.05;98543.72;5085847;28;20229;-71
2021/06/14 11:11:53;;;;;;;4.00;2.80;;;;;;;27.10;28.22;98546.66;5084904;28;20218;-70
2021/06/14 11:14:30;;;;;;;3.53;3.03;;;;;;;27.12;27.54;98542.59;5084785;28;20207;-70
2021/06/14 11:17:02;;;;;;;4.77;2.97;;;;;;;26.53;29.70;98546.91;5079879;28;20257;-68
2021/06/14 11:19:38;;;;;;;3.17;2.90;;;;;;;26.96;27.86;98532.66;5085737;28;20191;-69
2021/06/14 11:22:06;;;;;;;3.67;3.03;;;;;;;26.58;29.27;98525.22;5078943;28;20210;-68
2021/06/14 11:24:35;;;;;;;2.90;2.70;;;;;;;26.15;29.53;98519.59;5082020;28;20198;-68
2021/06/14 11:27:04;;;;;;;2.63;2.43;;;;;;;26.02;28.04;98514.50;5079768;28;20218;-69
2021/06/14 11:29:42;;;;;;;3.00;2.77;;;;;;;26.44;28.60;98521.25;5079999;28;20718;-68
2021/06/14 11:32:18;;;;;;;3.90;2.73;;;;;;;26.40;29.88;98507.34;5083629;28;20285;-67
2021/06/14 11:34:52;;;;;;;4.60;2.90;;;;;;;26.76;27.97;98503.34;5083662;28;20209;-68
2021/06/14 11:37:21;;;;;;;3.43;2.30;;;;;;;26.50;28.27;98498.50;5086179;28;20275;-68
2021/06/14 11:39:59;;;;;;;2.83;2.57;;;;;;;26.21;29.69;98498.72;5083203;28;20202;-68
2021/06/14 11:42:28;;;;;;;2.57;2.37;;;;;;;25.68;29.73;98491.00;5080815;28;20198;-69
2021/06/14 11:44:58;;;;;;;4.57;2.47;;;;;;;26.24;27.57;98497.41;5082259;28;20298;-68
2021/06/14 11:47:28;;;;;;;3.07;2.50;;;;;;;26.18;28.06;98493.00;5084938;28;21044;-68